Time;durP1;ratioP1;P1;durP2;ratioP2;P2;SDS_P1;SDS_P2;PMS_P1;PMS_P2;Temp;Humidity;BMP_temperature;BMP_pressure;BME280_temperature;BME280_humidity;BME280_pressure;Samples;Min_cycle;Max_cycle;Signal;HPM_P1;HPM_P2
2022/06/12 00:01:02;;;;;;;10.13;6.68;;;15.30;99.90;;;;;;5171094;28;20412;-82
2022/06/12 00:03:35;;;;;;;9.52;6.80;;;15.30;99.90;;;;;;5151706;28;20053;-79
2022/06/12 00:06:07;;;;;;;7.20;6.18;;;15.20;99.90;;;;;;5168770;28;20085;-76
2022/06/12 00:08:40;;;;;;;9.25;6.15;;;15.20;99.90;;;;;;5152866;28;20052;-78
2022/06/12 00:11:19;;;;;;;9.82;6.25;;;15.20;99.90;;;;;;5169938;28;20050;-80
2022/06/12 00:13:56;;;;;;;7.80;5.85;;;15.20;99.90;;;;;;5170822;28;20092;-79
2022/06/12 00:16:32;;;;;;;6.82;6.00;;;15.20;99.90;;;;;;5171415;28;20038;-77
2022/06/12 00:19:04;;;;;;;9.57;6.28;;;15.20;99.90;;;;;;5170225;28;20164;-76
2022/06/12 00:21:37;;;;;;;7.50;6.45;;;15.10;99.90;;;;;;5171349;28;20225;-80
2022/06/12 00:24:13;;;;;;;10.23;6.82;;;15.20;99.90;;;;;;5154242;28;20121;-78
2022/06/12 00:26:51;;;;;;;7.47;6.40;;;15.20;99.90;;;;;;5171085;28;20054;-79
2022/06/12 00:29:32;;;;;;;9.45;6.95;;;15.20;99.90;;;;;;5152465;28;20957;-78
2022/06/12 00:32:14;;;;;;;10.07;6.88;;;15.00;99.90;;;;;;5170958;28;20053;-78
2022/06/12 00:34:52;;;;;;;10.75;6.45;;;15.00;99.90;;;;;;5169388;28;20042;-79
2022/06/12 00:37:26;;;;;;;8.68;6.18;;;14.90;99.90;;;;;;5171295;28;20042;-78
2022/06/12 00:39:58;;;;;;;7.85;6.05;;;14.90;99.90;;;;;;5153798;28;20056;-78
2022/06/12 00:42:30;;;;;;;7.80;6.13;;;14.80;99.90;;;;;;5170637;28;20054;-77
2022/06/12 00:45:35;;;;;;;7.20;5.90;;;14.80;99.90;;;;;;5171761;28;20056;-81
2022/06/12 00:48:14;;;;;;;8.40;6.30;;;14.90;99.90;;;;;;5170325;28;20053;-76
2022/06/12 00:51:01;;;;;;;8.63;6.50;;;14.90;99.90;;;;;;5171491;28;20626;-77
2022/06/12 00:53:41;;;;;;;9.27;6.70;;;14.90;99.90;;;;;;5171163;28;20056;-77
2022/06/12 00:56:18;;;;;;;8.02;5.75;;;14.70;99.90;;;;;;5171430;28;20049;-77
2022/06/12 00:58:56;;;;;;;8.20;6.03;;;14.60;99.90;;;;;;5171073;28;20050;-76
2022/06/12 01:01:49;;;;;;;9.77;6.00;;;14.50;99.90;;;;;;5170288;28;20046;-76
2022/06/12 01:07:16;;;;;;;7.40;6.03;;;14.50;99.90;;;;;;5169936;28;20053;-79
2022/06/12 01:09:52;;;;;;;6.50;5.80;;;14.40;99.90;;;;;;5167086;28;20038;-81
2022/06/12 01:12:28;;;;;;;8.02;5.90;;;14.40;99.90;;;;;;5168545;28;20041;-79
2022/06/12 01:15:10;;;;;;;8.05;6.05;;;14.30;99.90;;;;;;5136298;28;20053;-77
2022/06/12 01:17:44;;;;;;;7.53;5.82;;;14.40;99.90;;;;;;5170395;28;20049;-79
2022/06/12 01:20:24;;;;;;;8.00;5.88;;;14.40;99.90;;;;;;5167983;28;20413;-76
2022/06/12 01:23:26;;;;;;;10.82;6.13;;;14.40;99.90;;;;;;5168004;28;20310;-78
2022/06/12 01:26:29;;;;;;;9.65;5.82;;;14.30;99.90;;;;;;5170241;28;20049;-77
2022/06/12 01:29:05;;;;;;;9.00;6.03;;;14.30;99.90;;;;;;5152657;28;20056;-77
2022/06/12 01:31:43;;;;;;;8.93;5.90;;;14.40;99.90;;;;;;5150213;28;20136;-76
2022/06/12 01:34:16;;;;;;;7.40;5.88;;;14.30;99.90;;;;;;5170737;28;20093;-79
2022/06/12 01:36:59;;;;;;;9.65;5.95;;;14.30;99.90;;;;;;5168086;28;20406;-78
2022/06/12 01:39:42;;;;;;;8.60;5.93;;;14.20;99.90;;;;;;5169548;28;20045;-75
2022/06/12 01:42:29;;;;;;;8.65;5.45;;;14.20;99.90;;;;;;5167648;28;20065;-78
2022/06/12 01:45:26;;;;;;;10.90;5.97;;;14.20;99.90;;;;;;5168935;28;20059;-80
2022/06/12 01:48:05;;;;;;;7.00;5.30;;;14.20;99.90;;;;;;5149034;28;20053;-78
2022/06/12 01:50:56;;;;;;;7.60;5.57;;;14.30;99.90;;;;;;5135796;28;20054;-78
2022/06/12 01:53:52;;;;;;;8.50;5.97;;;14.20;99.90;;;;;;5166848;28;20062;-79
2022/06/12 01:56:48;;;;;;;7.78;5.63;;;14.20;99.90;;;;;;5168822;28;20042;-76
2022/06/12 01:59:30;;;;;;;8.18;6.55;;;14.20;99.90;;;;;;5152370;28;20072;-78
2022/06/12 02:02:25;;;;;;;9.40;6.35;;;14.20;99.90;;;;;;5149004;28;20050;-77
2022/06/12 02:05:06;;;;;;;9.07;5.95;;;14.20;99.90;;;;;;5169394;28;20486;-80
2022/06/12 02:08:04;;;;;;;8.25;6.22;;;14.20;99.90;;;;;;5173423;28;20061;-79
2022/06/12 02:14:12;;;;;;;7.07;6.10;;;14.00;99.90;;;;;;5143764;28;20537;-78
2022/06/12 02:16:49;;;;;;;8.00;6.05;;;14.10;99.90;;;;;;5173710;28;20045;-77
2022/06/12 02:19:29;;;;;;;8.13;6.32;;;14.10;99.90;;;;;;5155779;28;20054;-79
2022/06/12 02:22:09;;;;;;;8.43;6.25;;;14.10;99.90;;;;;;5174680;28;20046;-77
2022/06/12 02:24:49;;;;;;;8.70;6.35;;;14.00;99.90;;;;;;5173414;28;20048;-79
2022/06/12 02:27:29;;;;;;;9.43;5.90;;;13.90;99.90;;;;;;5173727;28;20072;-78
2022/06/12 02:30:09;;;;;;;9.07;5.70;;;13.80;99.90;;;;;;5170645;28;20065;-77
2022/06/12 02:32:59;;;;;;;10.30;6.43;;;13.80;99.90;;;;;;5174609;28;20409;-83
2022/06/12 02:35:41;;;;;;;6.53;5.68;;;13.70;99.90;;;;;;5167686;28;20053;-77
2022/06/12 02:38:28;;;;;;;7.50;5.63;;;13.70;99.90;;;;;;5169365;28;20059;-77
2022/06/12 02:41:18;;;;;;;7.65;6.00;;;13.70;99.90;;;;;;5157488;28;20528;-81
2022/06/12 02:43:56;;;;;;;8.95;5.72;;;13.80;99.90;;;;;;5155798;28;20053;-79
2022/06/12 02:46:46;;;;;;;9.70;7.13;;;13.80;99.90;;;;;;5153340;28;20065;-78
2022/06/12 02:49:20;;;;;;;8.90;5.95;;;13.80;99.90;;;;;;5174145;28;20053;-78
2022/06/12 02:52:12;;;;;;;10.05;5.60;;;13.70;99.90;;;;;;5171568;28;20057;-77
2022/06/12 02:55:18;;;;;;;7.30;5.75;;;13.70;99.90;;;;;;5173769;28;20133;-79
2022/06/12 02:57:59;;;;;;;6.38;5.45;;;13.70;99.90;;;;;;5175118;28;20042;-79
2022/06/12 03:00:52;;;;;;;6.85;5.50;;;13.70;99.90;;;;;;5156001;28;20065;-79
2022/06/12 03:03:47;;;;;;;6.55;5.43;;;13.40;99.90;;;;;;5172206;28;20133;-81
2022/06/12 03:06:23;;;;;;;6.55;5.65;;;13.40;99.90;;;;;;5170707;28;20065;-81
2022/06/12 03:08:58;;;;;;;8.52;5.63;;;13.40;99.90;;;;;;5173451;28;20056;-78
2022/06/12 03:11:37;;;;;;;10.85;5.68;;;13.40;99.90;;;;;;5171952;28;20054;-77
2022/06/12 03:14:18;;;;;;;12.10;6.15;;;13.50;99.90;;;;;;5171458;28;20046;-79
2022/06/12 03:16:50;;;;;;;7.00;5.82;;;13.60;99.90;;;;;;5136889;28;20049;-78
2022/06/12 03:19:30;;;;;;;7.05;5.30;;;13.60;99.90;;;;;;5171657;28;20057;-79
2022/06/12 03:22:13;;;;;;;6.68;5.13;;;13.60;99.90;;;;;;5169555;28;20544;-78
2022/06/12 03:25:05;;;;;;;7.43;6.25;;;13.70;99.90;;;;;;5152570;28;20064;-78
2022/06/12 03:28:04;;;;;;;7.40;6.13;;;13.70;99.90;;;;;;5174090;28;20398;-75
2022/06/12 03:30:49;;;;;;;8.13;5.88;;;13.70;99.90;;;;;;5171548;28;20054;-80
2022/06/12 03:33:27;;;;;;;10.13;5.93;;;13.60;99.90;;;;;;5173879;28;20648;-77
2022/06/12 03:36:11;;;;;;;6.75;5.50;;;13.60;99.90;;;;;;5172435;28;20038;-78
2022/06/12 03:39:05;;;;;;;6.72;5.53;;;13.60;99.90;;;;;;5172864;28;20053;-83
2022/06/12 03:42:02;;;;;;;7.22;5.25;;;13.50;99.90;;;;;;5171336;28;20895;-78
2022/06/12 03:44:45;;;;;;;7.97;5.22;;;13.40;99.90;;;;;;5169605;28;20056;-79
2022/06/12 03:47:44;;;;;;;7.22;5.72;;;13.40;99.90;;;;;;5171712;28;20699;-79
2022/06/12 03:50:29;;;;;;;6.85;5.70;;;13.40;99.90;;;;;;5144716;28;20054;-78
2022/06/12 03:53:20;;;;;;;7.25;5.10;;;13.40;99.90;;;;;;5170073;28;20536;-78
2022/06/12 03:59:15;;;;;;;7.60;5.57;;;13.50;99.90;;;;;;5172731;28;20056;-79
2022/06/12 04:01:48;;;;;;;6.68;5.20;;;13.60;99.90;;;;;;5171971;28;20042;-77
2022/06/12 04:04:24;;;;;;;;;;;13.60;99.90;;;;;;5173445;28;20057;-79
2022/06/12 04:06:59;;;;;;;8.75;6.05;;;13.70;99.90;;;;;;5173293;28;19929;-78
2022/06/12 04:09:36;;;;;;;5.28;4.78;;;13.70;99.90;;;;;;5173289;28;20053;-76
2022/06/12 04:12:21;;;;;;;6.32;5.32;;;13.60;99.90;;;;;;5154214;28;20069;-76
2022/06/12 04:15:08;;;;;;;9.27;5.03;;;13.70;99.90;;;;;;5172420;28;20085;-77
2022/06/12 04:17:41;;;;;;;6.57;4.85;;;13.70;99.90;;;;;;5155199;28;20057;-76
2022/06/12 04:20:38;;;;;;;7.60;5.20;;;13.80;99.90;;;;;;5153878;28;20053;-78
2022/06/12 04:23:21;;;;;;;6.60;5.10;;;13.90;99.90;;;;;;5170812;28;20296;-78
2022/06/12 04:26:01;;;;;;;7.30;4.63;;;14.00;99.90;;;;;;5148755;28;20050;-79
2022/06/12 04:28:39;;;;;;;7.13;4.80;;;14.00;99.90;;;;;;5153654;28;20062;-79
2022/06/12 04:31:16;;;;;;;6.80;4.53;;;14.10;99.90;;;;;;5173952;28;20046;-79
2022/06/12 04:33:55;;;;;;;5.50;4.40;;;14.20;99.90;;;;;;5153583;28;20132;-81
2022/06/12 04:36:28;;;;;;;8.32;4.93;;;14.30;99.90;;;;;;5170064;28;20057;-79
2022/06/12 04:39:00;;;;;;;6.75;4.72;;;14.30;99.90;;;;;;5173661;28;20058;-79
2022/06/12 04:41:38;;;;;;;11.60;4.72;;;14.40;99.90;;;;;;5137671;28;20054;-77
2022/06/12 04:44:11;;;;;;;7.00;5.05;;;14.50;99.90;;;;;;5150417;28;20053;-78
2022/06/12 04:46:47;;;;;;;5.78;4.72;;;14.60;99.90;;;;;;5171020;28;20041;-77
2022/06/12 04:49:23;;;;;;;5.13;4.55;;;14.70;99.90;;;;;;5175944;28;20049;-77
2022/06/12 04:51:57;;;;;;;12.70;4.65;;;14.80;99.90;;;;;;5174590;28;20067;-78
2022/06/12 04:54:31;;;;;;;6.43;4.03;;;14.90;99.90;;;;;;5173871;28;20416;-76
2022/06/12 04:57:06;;;;;;;6.43;4.35;;;15.00;99.90;;;;;;5174241;28;20829;-79
2022/06/12 04:59:39;;;;;;;5.47;4.50;;;15.10;99.90;;;;;;5154155;28;20050;-79
2022/06/12 05:02:12;;;;;;;6.20;4.20;;;15.20;99.90;;;;;;5170818;28;20057;-78
2022/06/12 05:04:45;;;;;;;4.88;4.30;;;15.30;99.90;;;;;;5153314;28;20053;-78
2022/06/12 05:07:17;;;;;;;4.88;3.95;;;15.40;99.90;;;;;;5171567;28;20053;-79
2022/06/12 05:09:50;;;;;;;7.15;4.05;;;15.50;99.90;;;;;;5169942;28;20038;-77
2022/06/12 05:12:22;;;;;;;5.75;3.55;;;15.60;99.90;;;;;;5153153;28;20046;-77
2022/06/12 05:14:55;;;;;;;7.95;3.75;;;15.70;99.90;;;;;;5153289;28;20049;-77
2022/06/12 05:17:27;;;;;;;4.55;3.60;;;15.90;99.90;;;;;;5169609;28;20053;-77
2022/06/12 05:19:59;;;;;;;5.13;4.20;;;16.00;99.90;;;;;;5171207;28;20057;-79
2022/06/12 05:22:32;;;;;;;5.72;3.97;;;16.10;99.90;;;;;;5146076;28;20054;-76
2022/06/12 05:25:04;;;;;;;5.18;3.90;;;16.30;99.90;;;;;;5145442;28;20058;-80
2022/06/12 05:27:37;;;;;;;4.82;4.13;;;16.40;99.90;;;;;;5145938;28;20058;-78
2022/06/12 05:30:13;;;;;;;5.45;3.97;;;16.50;99.90;;;;;;5170414;28;20045;-76
2022/06/12 05:32:47;;;;;;;4.47;3.40;;;16.60;99.90;;;;;;5145470;28;20054;-77
2022/06/12 05:35:21;;;;;;;6.15;3.70;;;16.80;99.90;;;;;;5144334;28;20050;-79
2022/06/12 05:37:59;;;;;;;;;;;16.90;99.90;;;;;;5152541;28;20437;-78
2022/06/12 05:40:34;;;;;;;6.05;3.97;;;17.00;99.90;;;;;;5170527;28;19926;-77
2022/06/12 05:43:07;;;;;;;5.25;3.60;;;17.10;99.90;;;;;;5173812;28;20046;-76
2022/06/12 05:45:39;;;;;;;4.50;3.63;;;17.30;99.90;;;;;;5160816;28;20168;-77
2022/06/12 05:48:18;;;;;;;7.88;4.22;;;17.40;99.90;;;;;;5172774;28;20469;-75
2022/06/12 05:50:54;;;;;;;4.07;3.58;;;17.60;99.90;;;;;;5149770;28;20053;-80
2022/06/12 05:53:29;;;;;;;5.47;3.80;;;17.70;99.60;;;;;;5173932;28;20405;-77
2022/06/12 05:56:05;;;;;;;4.05;3.40;;;17.90;99.10;;;;;;5173833;28;20129;-77
2022/06/12 05:58:38;;;;;;;5.85;3.80;;;18.00;98.50;;;;;;5173727;28;20069;-77
2022/06/12 06:01:13;;;;;;;6.93;3.70;;;18.20;97.70;;;;;;5175043;28;20635;-77
2022/06/12 06:03:47;;;;;;;4.57;3.65;;;18.30;96.80;;;;;;5173090;28;20054;-79
2022/06/12 06:06:25;;;;;;;5.03;3.20;;;18.40;96.00;;;;;;5175329;28;20053;-79
2022/06/12 06:09:05;;;;;;;3.20;2.90;;;18.60;95.00;;;;;;5172958;28;20053;-77
2022/06/12 06:11:38;;;;;;;5.85;3.65;;;18.80;93.40;;;;;;5173361;28;20046;-77
2022/06/12 06:14:11;;;;;;;4.07;3.20;;;18.90;93.00;;;;;;5175577;28;20045;-77
2022/06/12 06:16:44;;;;;;;3.72;3.42;;;19.10;92.50;;;;;;5175587;28;20046;-77
2022/06/12 06:19:17;;;;;;;5.13;3.17;;;19.20;90.90;;;;;;5156056;28;20638;-77
2022/06/12 06:21:50;;;;;;;6.13;2.80;;;19.40;89.70;;;;;;5174901;28;20404;-77
2022/06/12 06:24:22;;;;;;;7.18;3.40;;;19.50;89.20;;;;;;5156119;28;20065;-77
2022/06/12 06:26:54;;;;;;;5.47;3.10;;;19.60;89.00;;;;;;5175446;28;20386;-77
2022/06/12 06:29:27;;;;;;;4.25;3.13;;;19.80;88.70;;;;;;5172615;28;20053;-77
2022/06/12 06:31:59;;;;;;;3.75;3.15;;;19.90;89.00;;;;;;5174222;28;20630;-78
2022/06/12 06:34:32;;;;;;;4.38;3.08;;;20.00;87.60;;;;;;5157118;28;20057;-79
2022/06/12 06:37:06;;;;;;;7.07;3.17;;;20.20;87.60;;;;;;5174412;28;20061;-77
2022/06/12 06:39:39;;;;;;;3.65;3.22;;;20.30;86.70;;;;;;5174697;28;20054;-79
2022/06/12 06:42:12;;;;;;;4.97;3.22;;;20.50;86.70;;;;;;5176107;28;20054;-80
2022/06/12 06:47:39;;;;;;;3.60;2.53;;;20.70;85.50;;;;;;5175396;28;20053;-79
2022/06/12 06:50:14;;;;;;;4.68;2.85;;;20.80;84.00;;;;;;5175000;28;20049;-78
2022/06/12 06:52:46;;;;;;;5.60;3.03;;;21.00;83.90;;;;;;5170032;28;20045;-82
2022/06/12 06:55:19;;;;;;;3.75;2.92;;;21.10;83.50;;;;;;5176205;28;20056;-76
2022/06/12 06:57:51;;;;;;;3.10;2.80;;;21.20;83.00;;;;;;5175874;28;20054;-78
2022/06/12 07:00:28;;;;;;;3.20;2.90;;;21.30;81.70;;;;;;5175027;28;20365;-78
2022/06/12 07:03:00;;;;;;;4.93;3.08;;;21.40;79.50;;;;;;5177512;28;20057;-77
2022/06/12 07:05:34;;;;;;;3.10;2.80;;;21.60;80.60;;;;;;5173154;28;20046;-79
2022/06/12 07:08:07;;;;;;;4.80;2.83;;;21.70;79.50;;;;;;5174612;28;20049;-76
2022/06/12 07:10:42;;;;;;;3.65;2.97;;;21.80;78.20;;;;;;5169475;28;20046;-79
2022/06/12 07:13:15;;;;;;;3.03;2.65;;;21.90;76.20;;;;;;5156977;28;20080;-78
2022/06/12 07:15:48;;;;;;;6.10;3.20;;;22.00;75.90;;;;;;5155733;28;20037;-80
2022/06/12 07:18:21;;;;;;;4.18;2.92;;;22.10;76.10;;;;;;5156874;28;20288;-78
2022/06/12 07:21:00;;;;;;;4.20;2.53;;;22.20;73.50;;;;;;5157069;28;20049;-78
2022/06/12 07:23:34;;;;;;;4.22;2.55;;;22.30;72.90;;;;;;5155651;28;20049;-77
2022/06/12 07:26:16;;;;;;;6.22;2.75;;;22.40;72.50;;;;;;5149962;28;20050;-77
2022/06/12 07:28:50;;;;;;;3.35;2.58;;;22.50;72.20;;;;;;5158960;28;20042;-77
2022/06/12 07:31:23;;;;;;;;;;;22.60;70.40;;;;;;5176892;28;20577;-79
2022/06/12 07:33:55;;;;;;;4.28;2.80;;;22.70;67.00;;;;;;5172814;28;19929;-78
2022/06/12 07:36:32;;;;;;;2.83;2.40;;;22.70;69.50;;;;;;5152316;28;20054;-76
2022/06/12 07:39:08;;;;;;;3.83;2.55;;;22.90;70.60;;;;;;5174482;28;20054;-75
2022/06/12 07:41:51;;;;;;;6.50;2.70;;;23.00;69.00;;;;;;5159501;28;20049;-77
2022/06/12 07:44:27;;;;;;;2.90;2.58;;;23.20;67.50;;;;;;5165918;28;20064;-82
2022/06/12 07:47:00;;;;;;;3.30;2.50;;;23.30;67.00;;;;;;5157308;28;20556;-80
2022/06/12 07:49:33;;;;;;;4.20;2.85;;;23.30;68.00;;;;;;5145312;28;20501;-77
2022/06/12 07:52:07;;;;;;;;;;;23.40;65.90;;;;;;5176501;28;20045;-82
2022/06/12 07:54:40;;;;;;;4.60;2.70;;;23.50;65.00;;;;;;5176980;28;19921;-78
2022/06/12 07:57:12;;;;;;;3.40;2.60;;;23.60;66.60;;;;;;5179490;28;20497;-78
2022/06/12 07:59:45;;;;;;;3.05;2.72;;;23.70;65.80;;;;;;5168246;28;20046;-81
2022/06/12 08:02:18;;;;;;;6.68;2.50;;;23.80;61.80;;;;;;5199532;28;20069;-80
2022/06/12 08:04:50;;;;;;;3.70;2.65;;;23.80;62.70;;;;;;5169548;28;20055;-77
2022/06/12 08:07:23;;;;;;;4.93;2.92;;;23.90;63.40;;;;;;5173893;28;20054;-76
2022/06/12 08:09:55;;;;;;;4.70;2.35;;;24.00;63.00;;;;;;5177448;28;20049;-78
2022/06/12 08:12:28;;;;;;;4.25;2.67;;;24.00;61.30;;;;;;5161834;28;20068;-78
2022/06/12 08:15:00;;;;;;;2.60;2.35;;;24.10;61.70;;;;;;5160596;28;20271;-78
2022/06/12 08:17:32;;;;;;;4.65;2.33;;;24.20;58.50;;;;;;5178116;28;20045;-78
2022/06/12 08:23:33;;;;;;;5.00;2.30;;;24.40;57.90;;;;;;5183400;28;20064;-78
2022/06/12 08:26:09;;;;;;;3.30;2.17;;;24.50;57.30;;;;;;5184964;28;20056;-78
2022/06/12 08:29:04;;;;;;;3.10;2.05;;;24.60;58.30;;;;;;5129041;28;20062;-78
2022/06/12 08:31:44;;;;;;;2.83;2.22;;;24.70;55.00;;;;;;5185774;28;20048;-79
2022/06/12 08:34:22;;;;;;;4.80;2.00;;;24.70;54.80;;;;;;5167555;28;20064;-81
2022/06/12 08:36:59;;;;;;;11.48;2.15;;;24.70;54.10;;;;;;5177176;28;20046;-77
2022/06/12 08:39:32;;;;;;;3.17;2.13;;;24.70;55.30;;;;;;5183132;28;20871;-80
2022/06/12 08:42:25;;;;;;;3.03;2.00;;;24.80;54.80;;;;;;5160038;28;20049;-77
2022/06/12 08:45:23;;;;;;;2.35;2.00;;;24.80;56.60;;;;;;5176444;28;20042;-77
2022/06/12 08:48:09;;;;;;;3.00;2.10;;;24.90;54.30;;;;;;5156478;28;20053;-79
2022/06/12 08:51:03;;;;;;;3.85;2.30;;;24.90;52.50;;;;;;5177365;28;20060;-77
2022/06/12 08:53:47;;;;;;;4.53;1.98;;;25.00;54.50;;;;;;5158540;28;20613;-74
2022/06/12 08:56:48;;;;;;;6.10;2.35;;;25.20;54.30;;;;;;5174422;28;20057;-78
2022/06/12 08:59:31;;;;;;;3.42;2.10;;;25.30;54.10;;;;;;5178223;28;20045;-78
2022/06/12 09:02:10;;;;;;;4.00;2.30;;;25.30;54.50;;;;;;5160384;28;20054;-77
2022/06/12 09:04:43;;;;;;;3.92;2.45;;;25.10;53.50;;;;;;5174561;28;20053;-77
2022/06/12 09:07:50;;;;;;;2.83;2.05;;;25.10;54.50;;;;;;5176684;28;20045;-77
2022/06/12 09:10:45;;;;;;;4.32;2.33;;;25.20;54.80;;;;;;5164312;28;20065;-78
2022/06/12 09:13:34;;;;;;;2.70;2.30;;;25.10;53.20;;;;;;5175450;28;20100;-76
2022/06/12 09:16:27;;;;;;;3.15;2.00;;;25.10;53.70;;;;;;5179032;28;20052;-75
2022/06/12 09:19:10;;;;;;;2.08;1.77;;;25.10;52.70;;;;;;5182740;28;20049;-78
2022/06/12 09:22:09;;;;;;;6.40;1.77;;;25.00;50.20;;;;;;5179075;28;20061;-76
2022/06/12 09:24:59;;;;;;;4.85;2.30;;;25.10;52.90;;;;;;5178807;28;20053;-78
2022/06/12 09:27:38;;;;;;;2.85;2.30;;;25.10;52.50;;;;;;5180508;28;20050;-77
2022/06/12 09:30:20;;;;;;;2.88;1.98;;;25.20;52.50;;;;;;5180977;28;20049;-78
2022/06/12 09:33:10;;;;;;;1.90;1.75;;;25.40;52.90;;;;;;5178023;28;20053;-81
2022/06/12 09:36:10;;;;;;;2.95;2.00;;;25.30;49.90;;;;;;5176236;28;20653;-78
2022/06/12 09:38:59;;;;;;;4.82;2.00;;;25.30;51.40;;;;;;5176267;28;20053;-79
2022/06/12 09:42:10;;;;;;;1.77;1.63;;;25.40;53.40;;;;;;5160459;28;20604;-77
2022/06/12 09:45:07;;;;;;;1.80;1.60;;;25.40;48.90;;;;;;5169382;28;20042;-77
2022/06/12 09:47:47;;;;;;;1.98;1.30;;;25.30;45.90;;;;;;5176545;28;20042;-78
2022/06/12 09:50:34;;;;;;;3.85;1.42;;;25.30;47.60;;;;;;5175764;28;20053;-77
2022/06/12 09:53:24;;;;;;;3.35;1.45;;;25.30;48.60;;;;;;5178914;28;20038;-83
2022/06/12 09:56:04;;;;;;;2.97;1.58;;;25.40;47.30;;;;;;5160328;28;20053;-78
2022/06/12 09:58:46;;;;;;;2.88;2.00;;;25.60;49.30;;;;;;5173975;28;20046;-77
2022/06/12 10:01:28;;;;;;;1.60;1.50;;;25.70;46.90;;;;;;5175258;28;20535;-79
2022/06/12 10:04:09;;;;;;;3.58;1.50;;;25.60;46.30;;;;;;5177340;28;20041;-77
2022/06/12 10:07:02;;;;;;;1.48;1.10;;;25.70;43.70;;;;;;5176178;28;20061;-78
2022/06/12 10:09:56;;;;;;;1.77;1.43;;;25.70;43.80;;;;;;5161467;28;20041;-78
2022/06/12 10:12:36;;;;;;;2.80;1.50;;;25.80;44.20;;;;;;5177497;28;20490;-77
2022/06/12 10:15:35;;;;;;;2.50;1.40;;;25.80;44.00;;;;;;5178362;28;20045;-77
2022/06/12 10:18:38;;;;;;;2.90;1.73;;;26.00;46.70;;;;;;5178480;28;20046;-77
2022/06/12 10:21:18;;;;;;;1.88;1.20;;;26.30;45.10;;;;;;5172613;28;20635;-78
2022/06/12 10:23:51;;;;;;;1.40;1.30;;;26.60;43.80;;;;;;5159090;28;20056;-77
2022/06/12 10:26:29;;;;;;;1.73;1.13;;;26.80;43.10;;;;;;5177222;28;20049;-77
2022/06/12 10:29:12;;;;;;;2.08;1.48;;;26.90;43.70;;;;;;5173699;28;20045;-77
2022/06/12 10:31:47;;;;;;;4.10;1.60;;;27.20;45.40;;;;;;5158126;28;20064;-76
2022/06/12 10:34:23;;;;;;;2.85;1.48;;;27.60;43.10;;;;;;5158349;28;20054;-79
2022/06/12 10:37:28;;;;;;;3.10;1.60;;;27.80;44.20;;;;;;5157506;28;20493;-78
2022/06/12 10:40:13;;;;;;;1.60;1.50;;;28.10;43.70;;;;;;5156895;28;20061;-77
2022/06/12 10:42:58;;;;;;;3.28;1.10;;;28.30;41.80;;;;;;5173233;28;20417;-77
2022/06/12 10:45:35;;;;;;;1.85;1.20;;;28.40;41.90;;;;;;5175772;28;20053;-78
2022/06/12 10:48:24;;;;;;;2.85;1.40;;;28.60;40.70;;;;;;5177305;28;20053;-80
2022/06/12 10:51:00;;;;;;;2.17;1.58;;;28.90;39.60;;;;;;5158435;28;20042;-81
2022/06/12 10:53:34;;;;;;;1.45;1.25;;;29.10;40.90;;;;;;5167128;28;20046;-78
2022/06/12 10:56:29;;;;;;;2.13;1.40;;;29.10;39.90;;;;;;5175915;28;20081;-77
2022/06/12 10:59:30;;;;;;;10.00;7.00;;;29.40;41.30;;;;;;5176830;28;20046;-80
2022/06/12 11:02:22;;;;;;;9.50;7.68;;;29.90;39.40;;;;;;5157808;28;20492;-78
2022/06/12 11:04:55;;;;;;;8.55;7.43;;;30.00;41.30;;;;;;5177090;28;21046;-77
2022/06/12 11:08:20;;;;;;;2.65;1.63;;;30.20;40.10;;;;;;5177745;28;20373;-77
2022/06/12 11:10:56;;;;;;;3.72;2.80;;;30.20;41.40;;;;;;5178762;28;20065;-80
2022/06/12 11:13:50;;;;;;;33.50;28.52;;;30.40;41.60;;;;;;5157764;28;20060;-78
2022/06/12 11:16:39;;;;;;;2.55;2.20;;;30.80;39.70;;;;;;5178379;28;20526;-78
2022/06/12 11:19:21;;;;;;;2.47;1.42;;;30.80;37.50;;;;;;5175274;28;20046;-79
2022/06/12 11:22:32;;;;;;;38.90;34.92;;;30.70;36.40;;;;;;5159955;28;20053;-77
2022/06/12 11:25:07;;;;;;;2.35;1.83;;;30.80;37.10;;;;;;5178799;28;20056;-78
2022/06/12 11:28:00;;;;;;;2.85;2.17;;;30.80;38.10;;;;;;5178096;28;20081;-77
2022/06/12 11:31:12;;;;;;;2.33;1.42;;;30.90;38.80;;;;;;5177990;28;20076;-77
2022/06/12 11:34:11;;;;;;;3.67;1.77;;;30.80;38.10;;;;;;5170608;28;20551;-79
2022/06/12 11:37:15;;;;;;;1.90;1.30;;;30.80;37.80;;;;;;5175405;28;20050;-79
2022/06/12 11:40:08;;;;;;;4.07;1.90;;;30.60;38.30;;;;;;5132146;28;20061;-79
2022/06/12 11:42:57;;;;;;;2.30;1.60;;;30.40;38.70;;;;;;5176093;28;20056;-78
2022/06/12 11:46:00;;;;;;;1.48;1.27;;;30.80;40.10;;;;;;5177970;28;20076;-82
2022/06/12 11:48:47;;;;;;;2.67;1.50;;;31.00;40.00;;;;;;5160069;28;20061;-79
2022/06/12 11:51:32;;;;;;;1.60;1.50;;;31.70;41.80;;;;;;5176246;28;20075;-79
2022/06/12 11:54:13;;;;;;;3.90;2.35;;;31.70;37.90;;;;;;5177611;28;20046;-78
2022/06/12 11:57:08;;;;;;;4.95;1.60;;;31.80;38.00;;;;;;5179999;28;20061;-80
2022/06/12 11:59:43;;;;;;;2.28;1.30;;;32.00;37.90;;;;;;5177664;28;20064;-76
2022/06/12 12:02:48;;;;;;;2.97;1.50;;;31.60;37.20;;;;;;5175241;28;20061;-78
2022/06/12 12:05:34;;;;;;;1.50;1.30;;;32.10;35.90;;;;;;5173456;28;20073;-77
2022/06/12 12:08:44;;;;;;;3.67;1.50;;;32.10;36.70;;;;;;5159721;28;20054;-77
2022/06/12 12:11:25;;;;;;;3.60;1.30;;;32.00;36.80;;;;;;5125610;28;20156;-78
2022/06/12 12:14:02;;;;;;;1.50;1.10;;;32.10;36.80;;;;;;5154155;28;20050;-79
2022/06/12 12:16:38;;;;;;;1.85;1.50;;;32.40;37.00;;;;;;5174767;28;20784;-77
2022/06/12 12:19:20;;;;;;;2.72;1.15;;;32.60;35.00;;;;;;5175312;28;20090;-77
2022/06/12 12:21:58;;;;;;;2.17;1.10;;;32.80;36.20;;;;;;5158114;28;20510;-77
2022/06/12 12:24:47;;;;;;;1.40;1.30;;;33.00;34.60;;;;;;5174177;28;20490;-78
2022/06/12 12:27:42;;;;;;;2.03;1.25;;;33.20;36.60;;;;;;5173759;28;20054;-80
2022/06/12 12:30:22;;;;;;;2.72;1.40;;;33.20;34.30;;;;;;5173942;28;20501;-77
2022/06/12 12:32:58;;;;;;;2.03;1.55;;;33.30;35.80;;;;;;5172556;28;20050;-78
2022/06/12 12:41:40;;;;;;;2.08;1.45;;;33.40;32.90;;;;;;5172545;28;20053;-78
2022/06/12 12:44:26;;;;;;;1.77;1.40;;;33.30;37.00;;;;;;5171271;28;20045;-79
2022/06/12 12:46:59;;;;;;;1.75;1.60;;;33.40;34.50;;;;;;5172911;28;20060;-80
2022/06/12 12:49:36;;;;;;;;;;;33.40;35.70;;;;;;5172167;28;20046;-80
2022/06/12 12:52:16;;;;;;;3.25;1.48;;;33.40;34.90;;;;;;5173150;28;19925;-78
2022/06/12 12:54:51;;;;;;;3.17;1.70;;;32.90;33.60;;;;;;5174783;28;20207;-80
2022/06/12 12:57:41;;;;;;;3.75;1.55;;;32.90;35.50;;;;;;5160265;28;20053;-78
2022/06/12 13:00:17;;;;;;;4.80;1.60;;;33.00;36.10;;;;;;5174131;28;20054;-77
2022/06/12 13:02:56;;;;;;;1.65;1.30;;;33.50;35.40;;;;;;5174076;28;20061;-78
2022/06/12 13:05:45;;;;;;;1.77;1.40;;;33.90;34.10;;;;;;5173834;28;20056;-78
2022/06/12 13:08:30;;;;;;;2.20;1.42;;;34.00;33.80;;;;;;5172918;28;20405;-79
2022/06/12 13:11:35;;;;;;;1.60;1.40;;;33.90;35.00;;;;;;5173579;28;20042;-78
2022/06/12 13:14:20;;;;;;;2.03;1.73;;;34.00;34.80;;;;;;5175387;28;20060;-78
2022/06/12 13:16:54;;;;;;;2.42;1.30;;;34.30;35.60;;;;;;5155772;28;20053;-79
2022/06/12 13:19:35;;;;;;;4.63;1.80;;;34.60;35.30;;;;;;5172327;28;20053;-78
2022/06/12 13:22:13;;;;;;;2.83;1.55;;;34.40;35.50;;;;;;5156106;28;20060;-79
2022/06/12 13:25:02;;;;;;;2.00;1.80;;;34.70;36.40;;;;;;5172460;28;20041;-78
2022/06/12 13:27:54;;;;;;;2.55;1.80;;;33.90;34.30;;;;;;5172360;28;20054;-76
2022/06/12 13:30:31;;;;;;;2.17;1.77;;;34.00;36.50;;;;;;5155611;28;20058;-78
2022/06/12 13:33:10;;;;;;;5.38;1.70;;;33.90;38.40;;;;;;5174961;28;20053;-79
2022/06/12 13:35:48;;;;;;;2.95;1.90;;;34.40;38.40;;;;;;5172290;28;20034;-79
2022/06/12 13:38:25;;;;;;;3.50;1.95;;;34.60;37.80;;;;;;5176481;28;20069;-80
2022/06/12 13:41:27;;;;;;;2.22;1.85;;;34.40;38.00;;;;;;5175911;28;20049;-80
2022/06/12 13:44:19;;;;;;;2.72;1.88;;;34.30;37.50;;;;;;5116720;28;21152;-80
2022/06/12 13:46:53;;;;;;;3.38;1.67;;;34.20;37.50;;;;;;5161629;28;20521;-79
2022/06/12 13:49:35;;;;;;;1.63;1.52;;;34.20;36.20;;;;;;5172652;28;20193;-76
2022/06/12 13:52:29;;;;;;;1.65;1.55;;;34.20;35.80;;;;;;5169680;28;20052;-76
2022/06/12 13:55:02;;;;;;;3.83;1.75;;;34.20;37.60;;;;;;5166759;28;20334;-77
2022/06/12 13:57:40;;;;;;;1.70;1.60;;;34.60;39.10;;;;;;5170012;28;20049;-77
2022/06/12 14:00:47;;;;;;;2.72;1.90;;;34.60;39.60;;;;;;5170870;28;20037;-81
2022/06/12 14:03:23;;;;;;;2.10;1.90;;;34.60;38.60;;;;;;5174673;28;20495;-78
2022/06/12 14:06:00;;;;;;;3.17;2.08;;;34.40;38.40;;;;;;5174794;28;20056;-77
2022/06/12 14:08:35;;;;;;;2.38;2.17;;;34.20;36.70;;;;;;5171096;28;20057;-77
2022/06/12 14:11:16;;;;;;;2.00;1.80;;;34.10;38.10;;;;;;5174747;28;20038;-81
2022/06/12 14:13:48;;;;;;;2.53;1.75;;;34.20;38.40;;;;;;5159996;28;20054;-77
2022/06/12 14:16:24;;;;;;;2.80;1.92;;;34.40;38.40;;;;;;5179399;28;20060;-78
2022/06/12 14:19:07;;;;;;;2.00;1.80;;;34.70;37.70;;;;;;5175071;28;20056;-77
2022/06/12 14:21:43;;;;;;;3.25;2.03;;;34.80;38.80;;;;;;5177332;28;20053;-77
2022/06/12 14:24:15;;;;;;;3.53;2.00;;;34.50;38.70;;;;;;5176021;28;20150;-78